createdAt,value
2017-11-30T00:01:44.398Z,22.40
2017-11-30T00:04:10.796Z,31.40
2017-11-30T00:06:37.174Z,27.85
2017-11-30T00:09:03.669Z,29.50
2017-11-30T00:11:30.069Z,25.48
2017-11-30T00:13:56.443Z,31.55
2017-11-30T00:16:23.929Z,23.35
2017-11-30T00:18:50.321Z,28.40
2017-11-30T00:21:16.751Z,28.23
2017-11-30T00:23:43.242Z,25.02
2017-11-30T00:26:09.670Z,30.48
2017-11-30T00:28:36.100Z,30.40
2017-11-30T00:31:02.521Z,24.00
2017-11-30T00:33:29.020Z,25.90
2017-11-30T00:35:55.419Z,28.73
2017-11-30T00:38:21.833Z,26.50
2017-11-30T00:40:48.311Z,29.12
2017-11-30T00:43:26.981Z,34.05
2017-11-30T00:45:53.429Z,27.30
2017-11-30T00:48:19.842Z,26.00
2017-11-30T00:50:46.266Z,29.63
2017-11-30T00:53:12.716Z,26.17
2017-11-30T00:55:39.913Z,31.25
2017-11-30T00:58:06.349Z,27.87
2017-11-30T01:00:32.801Z,38.60
2017-11-30T01:02:59.237Z,31.73
2017-11-30T01:05:25.625Z,25.35
2017-11-30T01:07:52.058Z,31.20
2017-11-30T01:10:21.674Z,37.65
2017-11-30T01:12:48.101Z,30.70
2017-11-30T01:15:14.549Z,37.53
2017-11-30T01:17:40.994Z,32.40
2017-11-30T01:20:08.384Z,31.58
2017-11-30T01:22:34.805Z,36.63
2017-11-30T01:25:01.193Z,38.85
2017-11-30T01:27:27.575Z,40.10
2017-11-30T01:29:54.006Z,35.70
2017-11-30T01:32:20.416Z,35.90
2017-11-30T01:34:46.829Z,41.35
2017-11-30T01:37:13.269Z,41.47
2017-11-30T01:39:39.666Z,37.35
2017-11-30T01:42:06.037Z,38.08
2017-11-30T01:44:32.471Z,35.63
2017-11-30T01:46:58.862Z,37.63
2017-11-30T01:49:25.294Z,50.45
2017-11-30T01:51:51.705Z,38.22
2017-11-30T01:54:18.889Z,41.47
2017-11-30T01:56:45.322Z,37.47
2017-11-30T01:59:11.790Z,39.97
2017-11-30T02:01:38.269Z,41.20
2017-11-30T02:04:04.691Z,40.95
2017-11-30T02:06:31.105Z,34.50
2017-11-30T02:08:57.501Z,45.50
2017-11-30T02:11:23.907Z,41.40
2017-11-30T02:13:50.377Z,37.63
2017-11-30T02:16:16.793Z,39.35
2017-11-30T02:18:43.217Z,36.75
2017-11-30T02:21:09.703Z,44.95
2017-11-30T02:23:36.145Z,35.33
2017-11-30T02:26:02.550Z,43.70
2017-11-30T02:28:28.997Z,41.53
2017-11-30T02:30:56.619Z,28.60
2017-11-30T02:33:23.070Z,38.53
2017-11-30T02:35:49.561Z,42.42
2017-11-30T02:38:16.741Z,39.00
2017-11-30T02:40:43.239Z,28.42
2017-11-30T02:43:10.641Z,38.25
2017-11-30T02:45:37.089Z,29.15
2017-11-30T02:48:04.338Z,29.20
2017-11-30T02:50:30.782Z,34.35
2017-11-30T02:52:57.179Z,24.65
2017-11-30T02:55:23.634Z,29.65
2017-11-30T02:57:50.095Z,25.90
2017-11-30T03:00:16.545Z,31.20
2017-11-30T03:02:42.989Z,27.25
2017-11-30T03:05:09.483Z,28.20
2017-11-30T03:07:35.920Z,25.73
2017-11-30T03:10:02.349Z,26.87
2017-11-30T03:12:28.753Z,29.37
2017-11-30T03:14:56.230Z,32.25
2017-11-30T03:17:22.687Z,29.73
2017-11-30T03:19:49.151Z,32.53
2017-11-30T03:22:16.338Z,28.95
2017-11-30T03:24:42.805Z,28.98
2017-11-30T03:27:09.226Z,29.87
2017-11-30T03:29:35.720Z,29.85
2017-11-30T03:32:03.179Z,25.42
2017-11-30T03:34:29.642Z,25.37
2017-11-30T03:36:56.048Z,28.17
2017-11-30T03:39:22.465Z,20.73
2017-11-30T03:41:48.945Z,22.48
2017-11-30T03:44:15.374Z,23.67
2017-11-30T03:46:41.836Z,23.80
2017-11-30T03:49:08.246Z,24.87
2017-11-30T03:51:34.637Z,22.77
2017-11-30T03:54:01.083Z,21.58
2017-11-30T03:56:28.537Z,23.48
2017-11-30T03:58:54.957Z,27.80
2017-11-30T04:01:21.450Z,23.87
2017-11-30T04:03:48.670Z,19.10
2017-11-30T04:06:15.071Z,28.77
2017-11-30T04:08:42.235Z,17.65
2017-11-30T04:11:08.653Z,19.95
2017-11-30T04:13:35.057Z,20.85
2017-11-30T04:16:01.410Z,19.27
2017-11-30T04:18:27.833Z,20.75
2017-11-30T04:20:54.972Z,16.60
2017-11-30T04:23:21.627Z,19.70
2017-11-30T04:25:48.800Z,14.82
2017-11-30T04:28:15.940Z,15.52
2017-11-30T04:30:42.337Z,15.65
2017-11-30T04:33:08.786Z,16.77
2017-11-30T04:35:35.157Z,18.58
2017-11-30T04:38:01.590Z,16.20
2017-11-30T04:40:28.067Z,16.98
2017-11-30T04:42:54.477Z,17.75
2017-11-30T04:45:20.880Z,14.85
2017-11-30T04:47:47.343Z,16.17
2017-11-30T04:50:13.730Z,25.40
2017-11-30T04:52:40.906Z,18.20
2017-11-30T04:55:08.213Z,17.52
2017-11-30T04:57:34.581Z,18.52
2017-11-30T05:00:00.983Z,21.58
2017-11-30T05:02:27.457Z,17.00
2017-11-30T05:04:53.889Z,20.00
2017-11-30T05:07:20.309Z,19.48
2017-11-30T05:09:46.762Z,17.37
2017-11-30T05:12:13.969Z,17.33
2017-11-30T05:14:40.412Z,21.37
2017-11-30T05:17:06.833Z,19.75
2017-11-30T05:19:33.227Z,15.85
2017-11-30T05:21:59.635Z,20.67
2017-11-30T05:24:26.046Z,21.67
2017-11-30T05:26:53.205Z,22.77
2017-11-30T05:29:19.589Z,19.87
2017-11-30T05:31:45.989Z,20.50
2017-11-30T05:34:13.108Z,18.87
2017-11-30T05:36:39.541Z,21.65
2017-11-30T05:39:05.970Z,16.83
2017-11-30T05:41:32.437Z,18.35
2017-11-30T05:43:58.818Z,22.15
2017-11-30T05:46:25.262Z,20.45
2017-11-30T05:48:52.384Z,17.02
2017-11-30T05:51:18.765Z,20.73
2017-11-30T05:53:45.954Z,20.45
2017-11-30T05:56:13.449Z,19.15
2017-11-30T05:58:39.843Z,19.42
2017-11-30T06:01:06.279Z,16.27
2017-11-30T06:03:32.681Z,18.42
2017-11-30T06:05:59.096Z,18.15
2017-11-30T06:08:25.497Z,24.77
2017-11-30T06:10:51.884Z,18.95
2017-11-30T06:13:19.059Z,14.18
2017-11-30T06:15:45.477Z,24.17
2017-11-30T06:18:12.757Z,16.95
2017-11-30T06:20:39.178Z,19.85
2017-11-30T06:23:05.593Z,22.87
2017-11-30T06:25:33.033Z,24.35
2017-11-30T06:27:59.478Z,23.55
2017-11-30T06:30:25.896Z,30.35
2017-11-30T06:32:52.293Z,26.95
2017-11-30T06:35:18.704Z,22.50
2017-11-30T06:37:45.125Z,21.37
2017-11-30T06:40:12.274Z,30.45
2017-11-30T06:42:38.694Z,34.28
2017-11-30T06:45:05.138Z,27.42
2017-11-30T06:47:31.536Z,25.98
2017-11-30T06:49:57.934Z,23.58
2017-11-30T06:52:25.101Z,30.15
2017-11-30T06:54:52.301Z,28.75
2017-11-30T06:57:18.781Z,24.02
2017-11-30T06:59:45.213Z,25.98
2017-11-30T07:02:11.606Z,31.67
2017-11-30T07:04:38.030Z,26.80
2017-11-30T07:07:04.449Z,27.90
2017-11-30T07:09:30.949Z,26.80
2017-11-30T07:11:58.085Z,28.50
2017-11-30T07:14:24.509Z,28.10
2017-11-30T07:16:50.910Z,28.23
2017-11-30T07:19:18.049Z,31.08
2017-11-30T07:21:45.207Z,34.30
2017-11-30T07:24:11.636Z,29.92
2017-11-30T07:26:38.077Z,35.67
2017-11-30T07:29:04.530Z,32.22
2017-11-30T07:31:30.947Z,32.47
2017-11-30T07:33:57.411Z,32.53
2017-11-30T07:36:23.804Z,31.42
2017-11-30T07:38:50.950Z,31.08
2017-11-30T07:41:17.383Z,33.65
2017-11-30T07:43:43.794Z,33.15
2017-11-30T07:46:10.206Z,32.80
2017-11-30T07:48:36.677Z,35.05
2017-11-30T07:51:03.133Z,29.80
2017-11-30T07:53:29.570Z,34.10
2017-11-30T07:55:56.025Z,27.73
2017-11-30T07:58:22.430Z,28.55
2017-11-30T08:00:48.814Z,28.67
2017-11-30T08:03:15.197Z,29.40
2017-11-30T08:05:41.617Z,28.90
2017-11-30T08:08:08.033Z,25.48
2017-11-30T08:10:34.409Z,29.63
2017-11-30T08:13:01.569Z,27.95
2017-11-30T08:15:27.970Z,27.73
2017-11-30T08:17:54.394Z,23.98
2017-11-30T08:20:20.829Z,26.58
2017-11-30T08:22:47.253Z,24.85
2017-11-30T08:25:13.689Z,26.12
2017-11-30T08:27:40.884Z,22.13
2017-11-30T08:30:07.997Z,22.70
2017-11-30T08:32:34.421Z,23.05
2017-11-30T08:35:00.894Z,23.90
2017-11-30T08:37:27.324Z,33.58
2017-11-30T08:39:53.717Z,19.92
2017-11-30T08:42:20.173Z,26.42
2017-11-30T08:44:46.620Z,22.27
2017-11-30T08:47:13.091Z,23.40
2017-11-30T08:49:39.533Z,24.30
2017-11-30T08:52:05.981Z,21.17
2017-11-30T08:54:32.417Z,26.37
2017-11-30T08:56:58.882Z,22.60
2017-11-30T08:59:25.325Z,25.80
2017-11-30T09:01:52.013Z,24.15
2017-11-30T09:04:19.234Z,28.75
2017-11-30T09:06:45.702Z,27.95
2017-11-30T09:09:12.120Z,25.33
2017-11-30T09:11:38.541Z,24.48
2017-11-30T09:14:04.940Z,25.05
2017-11-30T09:16:31.325Z,24.05
2017-11-30T09:18:57.766Z,18.55
2017-11-30T09:21:24.194Z,29.15
2017-11-30T09:23:50.574Z,25.05
2017-11-30T09:26:17.025Z,21.35
2017-11-30T09:28:43.413Z,22.30
2017-11-30T09:31:09.789Z,19.23
2017-11-30T09:33:36.222Z,24.37
2017-11-30T09:36:03.377Z,23.48
2017-11-30T09:38:29.749Z,28.85
2017-11-30T09:40:56.195Z,27.48
2017-11-30T09:43:22.611Z,22.87
2017-11-30T09:45:49.754Z,23.38
2017-11-30T09:48:16.921Z,23.92
2017-11-30T09:50:43.321Z,28.60
2017-11-30T09:53:09.717Z,25.05
2017-11-30T09:55:36.164Z,23.00
2017-11-30T09:58:02.530Z,23.42
2017-11-30T10:00:29.681Z,25.37
2017-11-30T10:02:56.173Z,18.02
2017-11-30T10:05:22.587Z,20.48
2017-11-30T10:07:48.996Z,20.88
2017-11-30T10:10:17.299Z,19.10
2017-11-30T10:12:43.716Z,23.27
2017-11-30T10:15:10.111Z,14.48
2017-11-30T10:17:36.518Z,20.95
2017-11-30T10:20:03.018Z,15.27
2017-11-30T10:22:29.420Z,18.10
2017-11-30T10:24:56.573Z,19.80
2017-11-30T10:27:22.982Z,18.90
2017-11-30T10:29:49.405Z,17.70
2017-11-30T10:32:15.882Z,15.73
2017-11-30T10:34:42.372Z,19.48
2017-11-30T10:37:09.545Z,19.52
2017-11-30T10:39:35.962Z,23.40
2017-11-30T10:42:02.349Z,21.55
2017-11-30T10:44:28.751Z,27.27
2017-11-30T10:46:55.894Z,23.35
2017-11-30T10:49:22.266Z,26.45
2017-11-30T10:51:48.669Z,22.80
2017-11-30T10:54:15.113Z,28.20
2017-11-30T10:56:41.597Z,27.80
2017-11-30T10:59:08.773Z,21.15
2017-11-30T11:01:35.237Z,29.75
2017-11-30T11:04:01.645Z,24.48
2017-11-30T11:06:28.809Z,21.02
2017-11-30T11:08:55.958Z,24.20
2017-11-30T11:11:22.353Z,23.80
2017-11-30T11:13:48.771Z,24.40
2017-11-30T11:16:15.178Z,30.23
2017-11-30T11:18:41.647Z,17.75
2017-11-30T11:21:08.077Z,31.60
2017-11-30T11:23:35.497Z,21.40
2017-11-30T11:26:01.874Z,27.70
2017-11-30T11:28:28.319Z,23.45
2017-11-30T11:30:54.734Z,26.42
2017-11-30T11:33:21.142Z,25.75
2017-11-30T11:35:48.261Z,20.83
2017-11-30T11:38:14.705Z,25.23
2017-11-30T11:40:41.106Z,28.62
2017-11-30T11:43:08.239Z,24.55
2017-11-30T11:45:34.625Z,24.30
2017-11-30T11:48:01.001Z,21.25
2017-11-30T11:50:27.410Z,25.40
2017-11-30T11:52:53.861Z,24.40
2017-11-30T11:55:20.330Z,23.80
2017-11-30T11:57:46.714Z,29.52
2017-11-30T12:00:13.906Z,20.83
2017-11-30T12:02:41.016Z,20.12
2017-11-30T12:05:08.190Z,21.85
2017-11-30T12:07:35.334Z,21.30
2017-11-30T12:10:01.758Z,17.48
2017-11-30T12:12:28.143Z,19.90
2017-11-30T12:14:55.289Z,18.30
2017-11-30T12:17:21.693Z,16.92
2017-11-30T12:19:48.094Z,23.83
2017-11-30T12:22:15.245Z,18.00
2017-11-30T12:24:41.629Z,18.67
2017-11-30T12:27:08.806Z,19.08
2017-11-30T12:29:35.262Z,21.70
2017-11-30T12:32:01.674Z,17.15
2017-11-30T12:34:28.085Z,20.75
2017-11-30T12:36:54.473Z,12.70
2017-11-30T12:39:21.621Z,17.05
2017-11-30T12:41:48.024Z,13.62
2017-11-30T12:44:14.443Z,18.27
2017-11-30T12:46:40.834Z,16.75
2017-11-30T12:49:07.989Z,18.25
2017-11-30T12:51:35.154Z,16.37
2017-11-30T12:54:02.577Z,21.62
2017-11-30T12:56:29.027Z,15.98
2017-11-30T12:58:55.488Z,15.85
2017-11-30T13:01:21.893Z,16.17
2017-11-30T13:03:48.283Z,17.65
2017-11-30T13:06:14.709Z,20.98
2017-11-30T13:08:41.120Z,17.80
2017-11-30T13:11:08.324Z,19.10
2017-11-30T13:13:34.755Z,17.55
2017-11-30T13:16:01.184Z,17.30
2017-11-30T13:18:27.620Z,19.02
2017-11-30T13:20:54.056Z,14.98
2017-11-30T13:23:21.224Z,14.38
2017-11-30T13:25:48.541Z,17.62
2017-11-30T13:28:15.166Z,16.05
2017-11-30T13:30:41.544Z,15.40
2017-11-30T13:33:07.928Z,17.17
2017-11-30T13:35:34.340Z,20.12
2017-11-30T13:38:00.752Z,16.58
2017-11-30T13:40:27.152Z,18.67
2017-11-30T13:42:53.588Z,14.57
2017-11-30T13:45:20.679Z,18.20
2017-11-30T13:47:47.064Z,20.37
2017-11-30T13:50:13.492Z,19.77
2017-11-30T13:52:39.917Z,21.15
2017-11-30T13:55:06.321Z,18.85
2017-11-30T13:57:32.723Z,18.12
2017-11-30T13:59:59.160Z,22.87
2017-11-30T14:02:25.568Z,19.95
2017-11-30T14:04:51.993Z,19.48
2017-11-30T14:07:18.364Z,15.80
2017-11-30T14:09:44.776Z,22.33
2017-11-30T14:12:11.928Z,23.95
2017-11-30T14:14:38.332Z,20.75
2017-11-30T14:17:04.647Z,16.95
2017-11-30T14:19:31.056Z,18.40
2017-11-30T14:21:57.468Z,18.83
2017-11-30T14:24:23.864Z,18.55
2017-11-30T14:26:50.994Z,19.62
2017-11-30T14:29:17.400Z,17.52
2017-11-30T14:31:44.900Z,18.90
2017-11-30T14:34:11.332Z,19.23
2017-11-30T14:36:37.788Z,20.15
2017-11-30T14:39:04.215Z,17.48
2017-11-30T14:41:30.634Z,13.57
2017-11-30T14:43:57.079Z,15.50
2017-11-30T14:46:24.264Z,17.17
2017-11-30T14:48:50.684Z,21.48
2017-11-30T14:51:17.824Z,20.17
2017-11-30T14:53:44.236Z,14.50
2017-11-30T14:56:10.655Z,17.83
2017-11-30T14:58:37.052Z,18.60
2017-11-30T15:01:03.444Z,17.80
2017-11-30T15:03:29.844Z,19.10
2017-11-30T15:05:56.240Z,17.30
2017-11-30T15:08:22.600Z,18.30
2017-11-30T15:10:49.021Z,17.33
2017-11-30T15:13:15.462Z,21.15
2017-11-30T15:15:41.907Z,21.20
2017-11-30T15:18:08.269Z,18.77
2017-11-30T15:20:35.712Z,18.77
2017-11-30T15:23:02.843Z,21.37
2017-11-30T15:25:30.044Z,14.27
2017-11-30T15:27:56.464Z,15.68
2017-11-30T15:30:23.791Z,20.27
2017-11-30T15:32:51.020Z,17.20
2017-11-30T15:35:17.407Z,17.62
2017-11-30T15:37:43.778Z,17.80
2017-11-30T15:40:10.284Z,17.37
2017-11-30T15:42:36.732Z,19.62
2017-11-30T15:45:03.140Z,16.25
2017-11-30T15:47:29.628Z,17.62
2017-11-30T15:49:56.211Z,14.77
2017-11-30T15:52:22.615Z,15.13
2017-11-30T15:54:49.074Z,11.90
2017-11-30T15:57:15.453Z,14.75
2017-11-30T15:59:42.532Z,15.85
2017-11-30T16:02:08.952Z,18.37
2017-11-30T16:04:36.171Z,14.02
2017-11-30T16:07:03.597Z,12.30
2017-11-30T16:09:30.083Z,13.48
2017-11-30T16:11:56.535Z,12.52
2017-11-30T16:14:23.226Z,17.77
2017-11-30T16:16:49.639Z,14.27
2017-11-30T16:19:16.013Z,19.80
2017-11-30T16:21:43.135Z,14.70
2017-11-30T16:24:09.516Z,14.48
2017-11-30T16:26:35.979Z,16.27
2017-11-30T16:29:02.366Z,19.58
2017-11-30T16:31:29.547Z,15.98
2017-11-30T16:33:55.943Z,18.58
2017-11-30T16:36:22.344Z,16.27
2017-11-30T16:38:49.473Z,18.40
2017-11-30T16:41:15.876Z,16.17
2017-11-30T16:43:42.341Z,17.10
2017-11-30T16:46:09.534Z,14.48
2017-11-30T16:48:35.929Z,13.80
2017-11-30T16:51:02.297Z,12.57
2017-11-30T16:53:28.723Z,11.57
2017-11-30T16:55:55.164Z,13.68
2017-11-30T16:58:21.538Z,17.50
2017-11-30T17:00:47.944Z,11.80
2017-11-30T17:03:14.305Z,12.85
2017-11-30T17:05:40.676Z,16.27
2017-11-30T17:08:07.070Z,13.13
2017-11-30T17:10:33.508Z,14.23
2017-11-30T17:13:00.672Z,15.88
2017-11-30T17:15:27.112Z,15.57
2017-11-30T17:17:54.315Z,14.80
2017-11-30T17:20:20.720Z,16.52
2017-11-30T17:22:48.292Z,17.70
2017-11-30T17:25:15.643Z,14.32
2017-11-30T17:27:42.128Z,12.52
2017-11-30T17:30:08.600Z,19.35
2017-11-30T17:32:36.140Z,12.70
2017-11-30T17:35:02.561Z,14.85
2017-11-30T17:37:29.036Z,11.10
2017-11-30T17:39:55.420Z,13.75
2017-11-30T17:42:21.848Z,14.25
2017-11-30T17:44:48.253Z,16.35
2017-11-30T17:47:15.368Z,10.60
2017-11-30T17:49:42.840Z,6.37
2017-11-30T17:52:10.024Z,6.40
2017-11-30T17:54:36.403Z,4.68
2017-11-30T17:57:02.848Z,4.70
2017-11-30T17:59:29.311Z,4.43
2017-11-30T18:01:55.684Z,4.20
2017-11-30T18:04:22.064Z,5.12
2017-11-30T18:06:48.501Z,5.62
2017-11-30T18:09:15.623Z,4.60
2017-11-30T18:11:42.311Z,4.28
2017-11-30T18:14:08.771Z,3.80
2017-11-30T18:16:35.911Z,4.43
2017-11-30T18:19:02.292Z,2.85
2017-11-30T18:21:28.668Z,6.70
2017-11-30T18:23:55.058Z,3.78
2017-11-30T18:26:22.556Z,4.90
2017-11-30T18:28:48.965Z,3.35
2017-11-30T18:31:16.072Z,4.30
2017-11-30T18:33:42.476Z,3.90
2017-11-30T18:36:08.920Z,4.30
2017-11-30T18:38:36.076Z,4.22
2017-11-30T18:41:02.565Z,4.50
2017-11-30T18:43:29.385Z,5.07
2017-11-30T18:45:56.044Z,6.37
2017-11-30T18:48:22.439Z,5.97
2017-11-30T18:50:48.876Z,5.85
2017-11-30T18:53:15.589Z,7.20
2017-11-30T18:55:42.780Z,8.10
2017-11-30T18:58:09.202Z,6.97
2017-11-30T19:00:35.596Z,4.75
2017-11-30T19:03:02.044Z,8.40
2017-11-30T19:05:29.225Z,6.62
2017-11-30T19:07:56.387Z,5.45
2017-11-30T19:10:23.554Z,6.03
2017-11-30T19:12:49.948Z,7.15
2017-11-30T19:15:16.360Z,6.93
2017-11-30T19:17:42.808Z,6.07
2017-11-30T19:20:09.920Z,5.40
2017-11-30T19:22:36.452Z,6.60
2017-11-30T19:25:02.906Z,8.45
2017-11-30T19:27:29.316Z,6.80
2017-11-30T19:29:55.752Z,7.05
2017-11-30T19:32:22.140Z,7.05
2017-11-30T19:34:48.634Z,8.38
2017-11-30T19:37:15.008Z,10.10
2017-11-30T19:39:41.344Z,8.85
2017-11-30T19:42:07.781Z,6.12
2017-11-30T19:44:34.332Z,7.80
2017-11-30T19:47:00.812Z,9.10
2017-11-30T19:49:27.233Z,11.00
2017-11-30T19:51:54.609Z,8.95
2017-11-30T19:54:21.025Z,7.45
2017-11-30T19:56:47.460Z,13.95
2017-11-30T19:59:13.833Z,8.63
2017-11-30T20:01:40.216Z,9.20
2017-11-30T20:04:07.367Z,6.85
2017-11-30T20:06:33.776Z,7.10
2017-11-30T20:09:01.171Z,10.00
2017-11-30T20:11:28.341Z,8.88
2017-11-30T20:13:54.724Z,10.32
2017-11-30T20:16:21.124Z,7.95
2017-11-30T20:18:48.320Z,7.62
2017-11-30T20:21:15.535Z,10.48
2017-11-30T20:23:41.999Z,10.68
2017-11-30T20:26:08.484Z,7.95
2017-11-30T20:28:35.611Z,12.52
2017-11-30T20:31:02.376Z,9.48
2017-11-30T20:33:29.740Z,11.48
2017-11-30T20:35:57.362Z,8.23
2017-11-30T20:38:23.784Z,11.63
2017-11-30T20:40:50.159Z,11.43
2017-11-30T20:43:16.530Z,11.07
2017-11-30T20:45:42.937Z,9.30
2017-11-30T20:48:09.349Z,9.82
2017-11-30T20:50:36.488Z,7.20
2017-11-30T20:53:02.896Z,9.23
2017-11-30T20:55:29.300Z,9.10
2017-11-30T20:57:56.468Z,15.18
2017-11-30T21:00:22.903Z,6.93
2017-11-30T21:02:49.324Z,12.65
2017-11-30T21:05:15.760Z,8.15
2017-11-30T21:07:42.217Z,7.45
2017-11-30T21:10:09.399Z,14.15
2017-11-30T21:12:36.531Z,10.50
2017-11-30T21:15:02.970Z,12.60
2017-11-30T21:17:30.392Z,11.85
2017-11-30T21:19:56.792Z,12.90
2017-11-30T21:22:23.147Z,9.43
2017-11-30T21:24:50.288Z,7.80
2017-11-30T21:27:16.715Z,9.48
2017-11-30T21:29:43.444Z,8.88
2017-11-30T21:32:09.848Z,8.05
2017-11-30T21:34:36.996Z,6.97
2017-11-30T21:37:03.385Z,8.15
2017-11-30T21:39:29.788Z,14.93
2017-11-30T21:41:56.275Z,7.97
2017-11-30T21:44:22.719Z,13.02
2017-11-30T21:46:49.156Z,11.73
2017-11-30T21:49:16.304Z,10.70
2017-11-30T21:51:43.440Z,14.27
2017-11-30T21:54:10.601Z,16.67
2017-11-30T21:56:37.061Z,15.63
2017-11-30T21:59:03.481Z,9.13
2017-11-30T22:01:29.924Z,11.45
2017-11-30T22:03:56.332Z,12.02
2017-11-30T22:06:22.728Z,11.40
2017-11-30T22:08:49.903Z,10.38
2017-11-30T22:11:16.308Z,10.85
2017-11-30T22:13:42.705Z,12.68
2017-11-30T22:16:09.107Z,8.68
2017-11-30T22:18:35.569Z,11.98
2017-11-30T22:21:02.012Z,15.68
2017-11-30T22:23:28.524Z,13.82
2017-11-30T22:25:55.913Z,8.75
2017-11-30T22:28:22.355Z,11.52
2017-11-30T22:30:48.747Z,10.40
2017-11-30T22:33:15.929Z,10.07
2017-11-30T22:35:42.379Z,12.63
2017-11-30T22:38:09.262Z,12.20
2017-11-30T22:40:35.780Z,9.07
2017-11-30T22:43:02.247Z,9.82
2017-11-30T22:45:28.688Z,11.07
2017-11-30T22:47:55.087Z,11.05
2017-11-30T22:50:22.308Z,11.07
2017-11-30T22:52:48.751Z,12.23
2017-11-30T22:55:15.148Z,10.48
2017-11-30T22:57:42.327Z,12.43
2017-11-30T23:00:08.800Z,13.20
2017-11-30T23:02:35.233Z,11.40
2017-11-30T23:05:01.660Z,12.43
2017-11-30T23:07:28.067Z,14.57
2017-11-30T23:09:54.447Z,15.25
2017-11-30T23:12:20.880Z,14.25
2017-11-30T23:14:47.316Z,13.90
2017-11-30T23:17:14.497Z,15.95
2017-11-30T23:19:40.924Z,14.00
2017-11-30T23:22:07.316Z,11.80
2017-11-30T23:24:34.455Z,10.50
2017-11-30T23:27:00.880Z,10.82
2017-11-30T23:29:27.364Z,14.02
2017-11-30T23:31:53.808Z,12.68
2017-11-30T23:34:20.308Z,12.05
2017-11-30T23:36:46.776Z,15.65
2017-11-30T23:39:13.219Z,8.05
2017-11-30T23:41:39.617Z,9.15
2017-11-30T23:44:08.302Z,11.25
2017-11-30T23:46:35.761Z,15.25
2017-11-30T23:49:02.160Z,10.85
2017-11-30T23:51:28.555Z,10.93
2017-11-30T23:53:55.015Z,11.85
2017-11-30T23:56:21.420Z,13.23
2017-11-30T23:58:48.636Z,18.27
